createdAt,value
2022-11-28T00:00:01.288Z,4.79
2022-11-28T00:02:33.856Z,4.84
2022-11-28T00:05:11.357Z,4.82
2022-11-28T00:07:43.464Z,4.82
2022-11-28T00:10:15.839Z,4.84
2022-11-28T00:12:47.882Z,4.87
2022-11-28T00:15:20.000Z,4.87
2022-11-28T00:17:54.679Z,4.84
2022-11-28T00:20:26.953Z,4.81
2022-11-28T00:22:58.914Z,4.80
2022-11-28T00:25:30.901Z,4.78
2022-11-28T00:28:02.919Z,4.75
2022-11-28T00:30:39.033Z,4.71
2022-11-28T00:33:25.151Z,4.63
2022-11-28T00:36:07.244Z,4.56
2022-11-28T00:38:42.143Z,4.58
2022-11-28T00:41:40.342Z,4.54
2022-11-28T00:44:12.398Z,4.54
2022-11-28T00:46:44.529Z,4.55
2022-11-28T00:49:18.908Z,4.61
2022-11-28T00:51:54.590Z,4.64
2022-11-28T00:54:27.989Z,4.59
2022-11-28T00:57:00.154Z,4.57
2022-11-28T00:59:33.142Z,4.59
2022-11-28T01:02:05.098Z,4.64
2022-11-28T01:04:37.858Z,4.60
2022-11-28T01:07:09.765Z,4.54
2022-11-28T01:09:42.124Z,4.52
2022-11-28T01:12:14.208Z,4.55
2022-11-28T01:14:46.026Z,4.53
2022-11-28T01:17:17.891Z,4.49
2022-11-28T01:19:49.996Z,4.46
2022-11-28T01:22:21.901Z,4.43
2022-11-28T01:24:53.985Z,4.39
2022-11-28T01:27:26.364Z,4.38
2022-11-28T01:29:58.316Z,4.33
2022-11-28T01:32:30.233Z,4.20
2022-11-28T01:35:02.808Z,4.09
2022-11-28T01:37:34.981Z,4.03
2022-11-28T01:40:12.099Z,3.96
2022-11-28T01:42:44.025Z,3.85
2022-11-28T01:45:20.578Z,3.76
2022-11-28T01:47:58.900Z,3.71
2022-11-28T01:50:33.400Z,3.69
2022-11-28T01:53:13.454Z,3.66
2022-11-28T01:55:54.423Z,3.59
2022-11-28T01:58:32.870Z,3.47
2022-11-28T02:01:06.417Z,3.32
2022-11-28T02:03:45.003Z,3.34
2022-11-28T02:06:19.726Z,3.31
2022-11-28T02:08:55.622Z,3.32
2022-11-28T02:15:22.420Z,3.19
2022-11-28T02:21:26.904Z,2.92
2022-11-28T02:24:45.642Z,2.85
2022-11-28T02:28:22.445Z,2.77
2022-11-28T02:31:04.985Z,2.71
2022-11-28T02:33:37.914Z,2.71
2022-11-28T02:36:36.791Z,2.68
2022-11-28T02:39:13.288Z,2.69
2022-11-28T02:41:47.251Z,2.70
2022-11-28T02:44:18.646Z,2.71
2022-11-28T02:46:55.929Z,2.72
2022-11-28T02:49:41.614Z,2.71
2022-11-28T02:52:13.416Z,2.58
2022-11-28T02:54:44.350Z,2.57
2022-11-28T02:57:13.082Z,2.57
2022-11-28T02:59:51.274Z,2.59
2022-11-28T03:02:27.040Z,2.62
2022-11-28T03:05:01.112Z,2.60
2022-11-28T03:07:53.675Z,2.57
2022-11-28T03:10:30.077Z,2.56
2022-11-28T03:13:11.332Z,2.57
2022-11-28T03:16:03.389Z,2.52
2022-11-28T03:18:37.775Z,2.46
2022-11-28T03:21:12.729Z,2.44
2022-11-28T03:23:46.417Z,2.42
2022-11-28T03:26:20.308Z,2.38
2022-11-28T03:28:56.259Z,2.33
2022-11-28T03:31:33.138Z,2.29
2022-11-28T03:34:07.520Z,2.25
2022-11-28T03:36:42.725Z,2.23
2022-11-28T03:39:15.370Z,2.23
2022-11-28T03:41:49.914Z,2.23
2022-11-28T03:44:23.129Z,2.16
2022-11-28T03:46:54.535Z,2.16
2022-11-28T03:49:29.045Z,2.19
2022-11-28T03:52:03.025Z,2.21
2022-11-28T03:54:52.843Z,2.21
2022-11-28T03:57:28.596Z,2.23
2022-11-28T04:00:00.036Z,2.24
2022-11-28T04:02:34.008Z,2.26
2022-11-28T04:05:06.799Z,2.29
2022-11-28T04:07:42.637Z,2.28
2022-11-28T04:10:20.512Z,2.29
2022-11-28T04:13:01.267Z,2.30
2022-11-28T04:15:37.727Z,2.31
2022-11-28T04:18:18.654Z,2.32
2022-11-28T04:20:53.221Z,2.31
2022-11-28T04:23:24.101Z,2.26
2022-11-28T04:25:56.716Z,2.24
2022-11-28T04:28:29.297Z,2.27
2022-11-28T04:31:01.063Z,2.28
2022-11-28T04:33:33.007Z,2.27
2022-11-28T04:36:04.813Z,2.28
2022-11-28T04:38:34.681Z,2.30
2022-11-28T04:41:10.458Z,2.31
2022-11-28T04:43:42.837Z,2.32
2022-11-28T04:46:15.721Z,2.35
2022-11-28T04:48:44.780Z,2.35
2022-11-28T04:51:20.071Z,2.37
2022-11-28T04:53:55.369Z,2.39
2022-11-28T04:56:28.728Z,2.35
2022-11-28T04:59:00.194Z,2.34
2022-11-28T05:01:31.231Z,2.34
2022-11-28T05:04:02.477Z,2.37
2022-11-28T05:06:33.765Z,2.37
2022-11-28T05:09:02.322Z,2.34
2022-11-28T05:11:31.596Z,2.29
2022-11-28T05:14:00.056Z,2.32
2022-11-28T05:16:28.623Z,2.31
2022-11-28T05:18:57.356Z,2.26
2022-11-28T05:21:26.040Z,2.27
2022-11-28T05:23:55.213Z,2.23
2022-11-28T05:26:23.704Z,2.22
2022-11-28T05:28:56.506Z,2.20
2022-11-28T05:31:25.264Z,2.21
2022-11-28T05:33:54.839Z,2.24
2022-11-28T05:36:23.877Z,2.24
2022-11-28T05:38:52.334Z,2.19
2022-11-28T05:41:22.473Z,2.14
2022-11-28T05:43:51.041Z,2.12
2022-11-28T05:46:20.898Z,2.11
2022-11-28T05:48:49.749Z,2.13
2022-11-28T05:51:18.329Z,2.16
2022-11-28T05:53:47.123Z,2.15
2022-11-28T05:56:17.367Z,2.14
2022-11-28T05:58:45.967Z,2.16
2022-11-28T06:01:17.611Z,2.16
2022-11-28T06:03:46.754Z,2.13
2022-11-28T06:06:17.475Z,2.10
2022-11-28T06:08:47.615Z,2.10
2022-11-28T06:11:16.945Z,2.11
2022-11-28T06:13:49.238Z,2.12
2022-11-28T06:16:23.492Z,2.12
2022-11-28T06:18:54.371Z,2.13
2022-11-28T06:21:24.322Z,2.14
2022-11-28T06:23:53.419Z,2.14
2022-11-28T06:26:24.367Z,2.13
2022-11-28T06:28:54.845Z,2.14
2022-11-28T06:31:26.625Z,2.17
2022-11-28T06:33:55.680Z,2.20
2022-11-28T06:36:25.627Z,2.28
2022-11-28T06:38:54.166Z,2.39
2022-11-28T06:41:25.172Z,2.47
2022-11-28T06:43:54.923Z,2.58
2022-11-28T06:46:24.034Z,2.71
2022-11-28T06:48:52.773Z,2.82
2022-11-28T06:51:21.643Z,2.91
2022-11-28T06:53:50.561Z,3.02
2022-11-28T06:56:19.944Z,3.11
2022-11-28T06:58:54.153Z,3.12
2022-11-28T07:01:25.143Z,3.18
2022-11-28T07:03:54.036Z,3.27
2022-11-28T07:06:25.240Z,3.30
2022-11-28T07:08:55.103Z,3.28
2022-11-28T07:11:25.542Z,3.28
2022-11-28T07:13:55.410Z,3.32
2022-11-28T07:16:26.038Z,3.38
2022-11-28T07:18:56.398Z,3.39
2022-11-28T07:21:24.910Z,3.42
2022-11-28T07:23:54.971Z,3.44
2022-11-28T07:26:24.017Z,3.45
2022-11-28T07:28:52.605Z,3.48
2022-11-28T07:31:24.604Z,3.55
2022-11-28T07:33:53.314Z,3.62
2022-11-28T07:36:24.454Z,3.67
2022-11-28T07:38:54.695Z,3.69
2022-11-28T07:41:26.480Z,3.74
2022-11-28T07:43:57.663Z,3.82
2022-11-28T07:46:28.638Z,3.83
2022-11-28T07:48:57.174Z,3.82
2022-11-28T07:51:28.546Z,3.82
2022-11-28T07:53:57.569Z,3.84
2022-11-28T07:56:39.358Z,3.89
2022-11-28T07:59:16.962Z,3.80
2022-11-28T08:01:45.610Z,3.78
2022-11-28T08:04:14.235Z,3.86
2022-11-28T08:06:44.020Z,3.95
2022-11-28T08:09:12.482Z,3.98
2022-11-28T08:11:42.862Z,4.01
2022-11-28T08:14:11.325Z,4.04
2022-11-28T08:16:44.246Z,3.98
2022-11-28T08:19:12.885Z,3.90
2022-11-28T08:21:44.183Z,3.90
2022-11-28T08:24:12.887Z,4.01
2022-11-28T08:26:42.071Z,4.09
2022-11-28T08:29:10.724Z,4.13
2022-11-28T08:31:40.268Z,4.22
2022-11-28T08:34:12.394Z,4.26
2022-11-28T08:36:42.703Z,4.33
2022-11-28T08:39:23.893Z,4.40
2022-11-28T08:41:56.418Z,4.46
2022-11-28T08:44:26.190Z,4.51
2022-11-28T08:46:54.781Z,4.57
2022-11-28T08:49:23.425Z,4.65
2022-11-28T08:51:51.893Z,4.65
2022-11-28T08:54:20.604Z,4.62
2022-11-28T08:56:49.174Z,4.58
2022-11-28T08:59:17.655Z,4.67
2022-11-28T09:01:47.336Z,4.71
2022-11-28T09:04:15.934Z,4.75
2022-11-28T09:06:44.486Z,4.80
2022-11-28T09:09:12.984Z,4.87
2022-11-28T09:11:41.810Z,4.87
2022-11-28T09:14:10.430Z,4.87
2022-11-28T09:16:39.670Z,4.89
2022-11-28T09:19:10.514Z,4.97
2022-11-28T09:21:40.047Z,5.02
2022-11-28T09:24:09.651Z,4.99
2022-11-28T09:26:38.057Z,4.98
2022-11-28T09:29:06.871Z,4.99
2022-11-28T09:31:35.404Z,5.07
2022-11-28T09:34:04.386Z,5.10
2022-11-28T09:36:35.605Z,5.11
2022-11-28T09:39:06.555Z,5.12
2022-11-28T09:41:50.704Z,5.13
2022-11-28T09:44:25.532Z,5.03
2022-11-28T09:46:57.911Z,5.02
2022-11-28T09:49:39.859Z,5.02
2022-11-28T09:52:28.012Z,5.05
2022-11-28T09:55:11.029Z,5.03
2022-11-28T09:57:43.257Z,5.03
2022-11-28T10:00:21.046Z,5.06
2022-11-28T10:03:06.776Z,5.03
2022-11-28T10:05:41.943Z,5.04
2022-11-28T10:08:29.555Z,5.11
2022-11-28T10:11:04.234Z,5.13
2022-11-28T10:14:07.145Z,5.12
2022-11-28T10:16:47.157Z,5.14
2022-11-28T10:19:55.324Z,5.15
2022-11-28T10:22:20.663Z,5.18
2022-11-28T10:24:53.668Z,5.20
2022-11-28T10:27:29.759Z,5.26
2022-11-28T10:30:02.520Z,5.33
2022-11-28T10:32:35.174Z,5.31
2022-11-28T10:35:07.615Z,5.32
2022-11-28T10:37:38.355Z,5.34
2022-11-28T10:40:20.193Z,5.35
2022-11-28T10:42:55.697Z,5.42
2022-11-28T10:45:36.719Z,5.51
2022-11-28T10:48:39.220Z,5.55
2022-11-28T10:51:16.978Z,5.57
2022-11-28T10:53:51.929Z,5.67
2022-11-28T10:56:31.950Z,5.71
2022-11-28T10:59:10.805Z,5.74
2022-11-28T11:01:43.754Z,5.76
2022-11-28T11:04:21.518Z,5.80
2022-11-28T11:07:14.817Z,5.83
2022-11-28T11:09:47.225Z,5.83
2022-11-28T11:12:23.440Z,5.83
2022-11-28T11:14:52.096Z,5.86
2022-11-28T11:17:36.627Z,5.91
2022-11-28T11:20:31.509Z,5.95
2022-11-28T11:23:01.924Z,5.97
2022-11-28T11:25:32.029Z,5.96
2022-11-28T11:28:06.052Z,6.07
2022-11-28T11:30:38.230Z,6.11
2022-11-28T11:33:15.337Z,6.08
2022-11-28T11:35:50.204Z,6.08
2022-11-28T11:38:37.504Z,6.15
2022-11-28T11:41:28.164Z,6.15
2022-11-28T11:44:34.516Z,6.10
2022-11-28T11:47:05.250Z,6.04
2022-11-28T11:49:36.329Z,6.05
2022-11-28T11:52:14.025Z,6.04
2022-11-28T11:54:56.390Z,6.07
2022-11-28T11:57:35.370Z,6.09
2022-11-28T12:00:10.677Z,6.16
2022-11-28T12:02:51.974Z,6.15
2022-11-28T12:05:23.622Z,6.11
2022-11-28T12:07:58.244Z,6.04
2022-11-28T12:10:30.879Z,6.05
2022-11-28T12:13:02.448Z,6.03
2022-11-28T12:15:40.181Z,6.04
2022-11-28T12:18:26.166Z,6.01
2022-11-28T12:21:10.061Z,5.98
2022-11-28T12:23:55.280Z,5.93
2022-11-28T12:26:33.425Z,5.86
2022-11-28T12:31:56.268Z,5.70
2022-11-28T12:34:37.390Z,5.75
2022-11-28T12:37:18.499Z,5.75
2022-11-28T12:39:55.992Z,5.78
2022-11-28T12:42:35.608Z,5.80
2022-11-28T12:45:39.077Z,5.80
2022-11-28T12:48:25.693Z,5.79
2022-11-28T12:51:00.836Z,5.80
2022-11-28T12:53:55.473Z,5.84
2022-11-28T12:56:44.793Z,5.86
2022-11-28T12:59:25.216Z,5.88
2022-11-28T13:02:09.460Z,5.91
2022-11-28T13:05:09.888Z,5.89
2022-11-28T13:07:48.481Z,5.90
2022-11-28T13:10:24.822Z,5.92
2022-11-28T13:12:58.480Z,5.95
2022-11-28T13:15:43.021Z,5.93
2022-11-28T13:18:24.165Z,5.93
2022-11-28T13:20:58.483Z,5.90
2022-11-28T13:23:33.642Z,5.93
2022-11-28T13:26:10.646Z,5.96
2022-11-28T13:28:50.681Z,5.91
2022-11-28T13:31:27.213Z,5.80
2022-11-28T13:33:57.135Z,5.77
2022-11-28T13:39:35.399Z,5.77
2022-11-28T13:45:26.687Z,5.71
2022-11-28T13:48:20.313Z,5.74
2022-11-28T13:51:01.584Z,5.77
2022-11-28T13:53:30.191Z,5.64
2022-11-28T13:56:23.580Z,5.59
2022-11-28T13:59:00.168Z,5.58
2022-11-28T14:01:31.188Z,5.57
2022-11-28T14:04:11.991Z,5.50
2022-11-28T14:06:46.800Z,5.46
2022-11-28T14:09:36.886Z,5.50
2022-11-28T14:12:17.186Z,5.48
2022-11-28T14:15:08.387Z,5.47
2022-11-28T14:17:52.089Z,5.46
2022-11-28T14:20:30.663Z,5.47
2022-11-28T14:23:17.956Z,5.48
2022-11-28T14:25:49.415Z,5.44
2022-11-28T14:28:27.146Z,5.47
2022-11-28T14:31:05.107Z,5.52
2022-11-28T14:33:41.726Z,5.51
2022-11-28T14:36:27.978Z,5.47
2022-11-28T14:39:33.419Z,5.45
2022-11-28T14:42:59.511Z,5.37
2022-11-28T14:45:44.572Z,5.28
2022-11-28T14:48:29.535Z,5.24
2022-11-28T14:51:02.217Z,5.20
2022-11-28T14:53:44.336Z,5.22
2022-11-28T14:56:26.882Z,5.22
2022-11-28T14:59:04.286Z,5.21
2022-11-28T15:01:50.308Z,5.24
2022-11-28T15:04:41.798Z,5.25
2022-11-28T15:07:24.296Z,5.21
2022-11-28T15:10:07.197Z,5.22
2022-11-28T15:12:51.267Z,5.26
2022-11-28T15:15:22.053Z,5.23
2022-11-28T15:17:53.946Z,5.22
2022-11-28T15:20:28.401Z,5.17
2022-11-28T15:22:57.168Z,5.14
2022-11-28T15:25:28.893Z,5.11
2022-11-28T15:28:11.908Z,5.16
2022-11-28T15:30:45.060Z,5.14
2022-11-28T15:33:14.303Z,5.12
2022-11-28T15:35:56.064Z,5.17
2022-11-28T15:38:25.197Z,5.20
2022-11-28T15:40:56.076Z,5.18
2022-11-28T15:43:26.217Z,5.20
2022-11-28T15:45:58.286Z,5.21
2022-11-28T15:48:38.780Z,5.19
2022-11-28T15:51:26.108Z,5.13
2022-11-28T15:53:55.537Z,5.11
2022-11-28T15:56:24.234Z,5.11
2022-11-28T15:58:53.645Z,5.11
2022-11-28T16:01:26.643Z,5.11
2022-11-28T16:04:01.751Z,5.08
2022-11-28T16:06:35.613Z,5.09
2022-11-28T16:09:11.929Z,5.11
2022-11-28T16:11:44.746Z,5.11
2022-11-28T16:14:21.348Z,5.04
2022-11-28T16:16:50.298Z,5.00
2022-11-28T16:19:25.421Z,5.03
2022-11-28T16:21:57.378Z,5.00
2022-11-28T16:24:29.380Z,5.02
2022-11-28T16:27:01.189Z,5.03
2022-11-28T16:29:34.644Z,5.04
2022-11-28T16:32:21.117Z,4.98
2022-11-28T16:35:04.463Z,4.95
2022-11-28T16:37:33.600Z,4.94
2022-11-28T16:40:06.747Z,4.93
2022-11-28T16:42:35.573Z,4.94
2022-11-28T16:45:10.199Z,4.95
2022-11-28T16:47:39.303Z,4.97
2022-11-28T16:50:20.210Z,4.98
2022-11-28T16:52:51.580Z,4.94
2022-11-28T16:55:39.930Z,4.93
2022-11-28T16:58:18.164Z,4.95
2022-11-28T17:00:58.417Z,4.92
2022-11-28T17:03:46.823Z,4.90
2022-11-28T17:06:27.508Z,4.91
2022-11-28T17:08:56.430Z,4.83
2022-11-28T17:11:29.372Z,4.83
2022-11-28T17:13:59.599Z,4.85
2022-11-28T17:16:36.154Z,4.83
2022-11-28T17:19:04.902Z,4.76
2022-11-28T17:21:37.812Z,4.76
2022-11-28T17:24:13.362Z,4.76
2022-11-28T17:26:41.962Z,4.75
2022-11-28T17:29:41.508Z,4.74
2022-11-28T17:32:13.587Z,4.71
2022-11-28T17:34:42.796Z,4.79
2022-11-28T17:37:12.228Z,4.79
2022-11-28T17:40:01.083Z,4.75
2022-11-28T17:42:29.946Z,4.74
2022-11-28T17:45:00.679Z,4.73
2022-11-28T17:47:31.682Z,4.74
2022-11-28T17:50:00.298Z,4.77
2022-11-28T17:52:29.772Z,4.77
2022-11-28T17:55:06.634Z,4.74
2022-11-28T17:57:36.790Z,4.75
2022-11-28T18:00:08.726Z,4.73
2022-11-28T18:02:48.397Z,4.66
2022-11-28T18:05:20.738Z,4.65
2022-11-28T18:07:50.845Z,4.64
2022-11-28T18:10:19.397Z,4.66
2022-11-28T18:12:48.210Z,4.65
2022-11-28T18:15:17.111Z,4.64
2022-11-28T18:17:56.118Z,4.60
2022-11-28T18:20:28.020Z,4.61
2022-11-28T18:23:03.308Z,4.64
2022-11-28T18:25:31.881Z,4.58
2022-11-28T18:28:19.957Z,4.56
2022-11-28T18:30:49.777Z,4.57
2022-11-28T18:33:38.703Z,4.57
2022-11-28T18:36:29.389Z,4.54
2022-11-28T18:39:01.190Z,4.52
2022-11-28T18:41:29.821Z,4.49
2022-11-28T18:44:00.699Z,4.51
2022-11-28T18:46:33.169Z,4.54
2022-11-28T18:49:04.794Z,4.51
2022-11-28T18:51:35.029Z,4.49
2022-11-28T18:54:05.470Z,4.50
2022-11-28T18:56:35.023Z,4.53
2022-11-28T18:59:06.730Z,4.56
2022-11-28T19:01:35.724Z,4.56
2022-11-28T19:04:08.662Z,4.56
2022-11-28T19:06:39.447Z,4.59
2022-11-28T19:09:12.017Z,4.60
2022-11-28T19:11:42.540Z,4.57
2022-11-28T19:14:16.466Z,4.60
2022-11-28T19:16:46.246Z,4.59
2022-11-28T19:19:18.849Z,4.58
2022-11-28T19:21:49.444Z,4.60
2022-11-28T19:24:18.065Z,4.59
2022-11-28T19:26:46.693Z,4.58
2022-11-28T19:29:15.661Z,4.63
2022-11-28T19:31:44.560Z,4.64
2022-11-28T19:34:15.105Z,4.60
2022-11-28T19:36:46.631Z,4.56
2022-11-28T19:39:18.162Z,4.54
2022-11-28T19:41:48.010Z,4.51
2022-11-28T19:44:16.691Z,4.48
2022-11-28T19:46:45.486Z,4.44
2022-11-28T19:49:23.091Z,4.46
2022-11-28T19:51:53.812Z,4.56
2022-11-28T19:54:23.047Z,4.56
2022-11-28T19:56:54.814Z,4.45
2022-11-28T19:59:23.689Z,4.46
2022-11-28T20:01:54.374Z,4.44
2022-11-28T20:04:23.956Z,4.42
2022-11-28T20:06:52.789Z,4.38
2022-11-28T20:09:21.910Z,4.43
2022-11-28T20:11:50.545Z,4.44
2022-11-28T20:14:20.392Z,4.43
2022-11-28T20:16:49.203Z,4.44
2022-11-28T20:19:18.148Z,4.46
2022-11-28T20:21:47.178Z,4.46
2022-11-28T20:24:16.800Z,4.49
2022-11-28T20:26:49.868Z,4.43
2022-11-28T20:29:19.782Z,4.39
2022-11-28T20:31:49.181Z,4.40
2022-11-28T20:34:18.920Z,4.44
2022-11-28T20:36:52.836Z,4.45
2022-11-28T20:39:22.185Z,4.43
2022-11-28T20:41:51.039Z,4.45
2022-11-28T20:44:19.721Z,4.41
2022-11-28T20:46:49.335Z,4.38
2022-11-28T20:49:21.955Z,4.35
2022-11-28T20:51:50.532Z,4.31
2022-11-28T20:54:19.096Z,4.26
2022-11-28T20:59:37.053Z,4.22
2022-11-28T21:02:05.974Z,4.20
2022-11-28T21:04:37.156Z,4.24
2022-11-28T21:07:05.689Z,4.29
2022-11-28T21:09:34.319Z,4.26
2022-11-28T21:12:03.114Z,4.23
2022-11-28T21:14:31.795Z,4.22
2022-11-28T21:17:03.320Z,4.26
2022-11-28T21:19:31.751Z,4.25
2022-11-28T21:22:00.420Z,4.26
2022-11-28T21:24:29.241Z,4.21
2022-11-28T21:26:58.107Z,4.25
2022-11-28T21:29:26.575Z,4.25
2022-11-28T21:31:55.384Z,4.27
2022-11-28T21:34:23.956Z,4.24
2022-11-28T21:36:54.170Z,4.25
2022-11-28T21:39:38.654Z,4.27
2022-11-28T21:42:20.159Z,4.23
2022-11-28T21:44:49.429Z,4.26
2022-11-28T21:47:18.112Z,4.27
2022-11-28T21:49:47.802Z,4.26
2022-11-28T21:52:18.688Z,4.23
2022-11-28T21:54:47.632Z,4.20
2022-11-28T21:57:16.095Z,4.19
2022-11-28T21:59:48.065Z,4.19
2022-11-28T22:02:16.978Z,4.15
2022-11-28T22:04:45.917Z,4.10
2022-11-28T22:07:14.994Z,4.09
2022-11-28T22:09:44.185Z,4.07
2022-11-28T22:12:14.434Z,4.08
2022-11-28T22:14:43.163Z,4.14
2022-11-28T22:17:12.248Z,4.14
2022-11-28T22:19:43.205Z,4.15
2022-11-28T22:22:12.004Z,4.19
2022-11-28T22:24:41.604Z,4.18
2022-11-28T22:27:10.893Z,4.17
2022-11-28T22:29:39.389Z,4.18
2022-11-28T22:32:08.549Z,4.18
2022-11-28T22:34:40.041Z,4.17
2022-11-28T22:37:09.668Z,4.16
2022-11-28T22:39:42.632Z,4.16
2022-11-28T22:42:13.422Z,4.18
2022-11-28T22:44:45.613Z,4.14
2022-11-28T22:47:15.607Z,4.13
2022-11-28T22:49:49.641Z,4.14
2022-11-28T22:52:18.145Z,4.14
2022-11-28T22:54:48.722Z,4.13
2022-11-28T22:57:22.280Z,4.10
2022-11-28T22:59:51.421Z,4.11
2022-11-28T23:02:49.086Z,4.16
2022-11-28T23:05:18.466Z,4.20
2022-11-28T23:07:49.558Z,4.19
2022-11-28T23:10:19.249Z,4.12
2022-11-28T23:12:47.875Z,4.09
2022-11-28T23:15:16.765Z,4.08
2022-11-28T23:17:45.388Z,4.10
2022-11-28T23:20:33.635Z,4.09
2022-11-28T23:23:02.196Z,4.08
2022-11-28T23:25:30.621Z,4.09
2022-11-28T23:28:00.278Z,4.11
2022-11-28T23:30:29.185Z,4.10
2022-11-28T23:32:58.239Z,4.07
2022-11-28T23:35:28.322Z,4.08
2022-11-28T23:37:57.432Z,4.09
2022-11-28T23:40:29.004Z,4.10
2022-11-28T23:43:00.048Z,4.09
2022-11-28T23:45:28.737Z,4.09
2022-11-28T23:47:57.512Z,4.08
2022-11-28T23:50:26.634Z,4.09
2022-11-28T23:52:55.075Z,4.11
2022-11-28T23:55:23.655Z,4.10
2022-11-28T23:57:53.559Z,4.10
